sensor_id;sensor_type;location;lat;lon;timestamp;pressure;altitude;pressure_sealevel;temperature;humidity
8575;BME280;4325;42.520;27.448;2023-04-06T00:00:24;100810.31;;;9.68;100.00
8575;BME280;4325;42.520;27.448;2023-04-06T00:02:51;100809.47;;;9.62;100.00
8575;BME280;4325;42.520;27.448;2023-04-06T00:05:19;100805.38;;;9.65;100.00
8575;BME280;4325;42.520;27.448;2023-04-06T00:07:47;100805.66;;;9.63;100.00
8575;BME280;4325;42.520;27.448;2023-04-06T00:10:14;100806.44;;;9.64;100.00
8575;BME280;4325;42.520;27.448;2023-04-06T00:12:41;100802.66;;;9.70;100.00
8575;BME280;4325;42.520;27.448;2023-04-06T00:15:10;100806.50;;;9.74;100.00
8575;BME280;4325;42.520;27.448;2023-04-06T00:17:37;100801.88;;;9.74;100.00
8575;BME280;4325;42.520;27.448;2023-04-06T00:20:05;100803.53;;;9.75;100.00
8575;BME280;4325;42.520;27.448;2023-04-06T00:22:32;100795.06;;;9.77;100.00
8575;BME280;4325;42.520;27.448;2023-04-06T00:24:59;100793.97;;;9.78;100.00
8575;BME280;4325;42.520;27.448;2023-04-06T00:27:26;100790.41;;;9.77;100.00
8575;BME280;4325;42.520;27.448;2023-04-06T00:29:53;100794.47;;;9.70;100.00
8575;BME280;4325;42.520;27.448;2023-04-06T00:32:21;100795.00;;;9.67;100.00
8575;BME280;4325;42.520;27.448;2023-04-06T00:34:48;100794.41;;;9.60;100.00
8575;BME280;4325;42.520;27.448;2023-04-06T00:37:15;100784.00;;;9.57;100.00
8575;BME280;4325;42.520;27.448;2023-04-06T00:39:42;100780.94;;;9.48;100.00
8575;BME280;4325;42.520;27.448;2023-04-06T00:42:11;100777.34;;;9.43;100.00
8575;BME280;4325;42.520;27.448;2023-04-06T00:44:39;100778.94;;;9.34;100.00
8575;BME280;4325;42.520;27.448;2023-04-06T00:47:06;100775.72;;;9.42;100.00
8575;BME280;4325;42.520;27.448;2023-04-06T00:49:34;100776.00;;;9.45;100.00
8575;BME280;4325;42.520;27.448;2023-04-06T00:52:01;100773.00;;;9.47;100.00
8575;BME280;4325;42.520;27.448;2023-04-06T00:54:28;100772.41;;;9.40;100.00
8575;BME280;4325;42.520;27.448;2023-04-06T00:56:56;100772.66;;;9.38;100.00
8575;BME280;4325;42.520;27.448;2023-04-06T00:59:23;100767.91;;;9.23;100.00
8575;BME280;4325;42.520;27.448;2023-04-06T01:01:50;100764.63;;;9.21;100.00
8575;BME280;4325;42.520;27.448;2023-04-06T01:04:17;100764.63;;;9.21;100.00
8575;BME280;4325;42.520;27.448;2023-04-06T01:06:45;100756.72;;;9.25;100.00
8575;BME280;4325;42.520;27.448;2023-04-06T01:09:12;100768.53;;;9.30;100.00
8575;BME280;4325;42.520;27.448;2023-04-06T01:11:39;100766.91;;;9.35;100.00
8575;BME280;4325;42.520;27.448;2023-04-06T01:14:06;100755.19;;;9.39;100.00
8575;BME280;4325;42.520;27.448;2023-04-06T01:16:34;100754.41;;;9.44;100.00
8575;BME280;4325;42.520;27.448;2023-04-06T01:19:01;100753.31;;;9.45;100.00
8575;BME280;4325;42.520;27.448;2023-04-06T01:21:33;100756.59;;;9.47;100.00
8575;BME280;4325;42.520;27.448;2023-04-06T01:24:01;100751.72;;;9.49;100.00
8575;BME280;4325;42.520;27.448;2023-04-06T01:26:28;100744.31;;;9.44;100.00
8575;BME280;4325;42.520;27.448;2023-04-06T01:28:55;100746.22;;;9.44;100.00
8575;BME280;4325;42.520;27.448;2023-04-06T01:31:23;100744.03;;;9.46;100.00
8575;BME280;4325;42.520;27.448;2023-04-06T01:33:50;100745.66;;;9.47;100.00
8575;BME280;4325;42.520;27.448;2023-04-06T01:36:17;100751.13;;;9.47;100.00
8575;BME280;4325;42.520;27.448;2023-04-06T01:38:45;100736.31;;;9.38;100.00
8575;BME280;4325;42.520;27.448;2023-04-06T01:41:13;100734.69;;;9.37;100.00
8575;BME280;4325;42.520;27.448;2023-04-06T01:43:40;100738.50;;;9.36;100.00
8575;BME280;4325;42.520;27.448;2023-04-06T01:46:07;100747.25;;;9.38;100.00
8575;BME280;4325;42.520;27.448;2023-04-06T01:48:34;100737.97;;;9.39;100.00
8575;BME280;4325;42.520;27.448;2023-04-06T01:51:01;100735.81;;;9.41;100.00
8575;BME280;4325;42.520;27.448;2023-04-06T01:53:28;100737.69;;;9.40;100.00
8575;BME280;4325;42.520;27.448;2023-04-06T01:55:55;100745.91;;;9.40;100.00
8575;BME280;4325;42.520;27.448;2023-04-06T01:58:24;100742.38;;;9.45;100.00
8575;BME280;4325;42.520;27.448;2023-04-06T02:00:51;100739.13;;;9.48;100.00
8575;BME280;4325;42.520;27.448;2023-04-06T02:03:18;100744.63;;;9.53;100.00
8575;BME280;4325;42.520;27.448;2023-04-06T02:05:45;100737.53;;;9.57;100.00
8575;BME280;4325;42.520;27.448;2023-04-06T02:08:12;100740.25;;;9.57;100.00
8575;BME280;4325;42.520;27.448;2023-04-06T02:10:39;100735.38;;;9.59;100.00
8575;BME280;4325;42.520;27.448;2023-04-06T02:13:06;100736.44;;;9.58;100.00
8575;BME280;4325;42.520;27.448;2023-04-06T02:15:34;100730.97;;;9.58;100.00
8575;BME280;4325;42.520;27.448;2023-04-06T02:18:01;100735.09;;;9.60;100.00
8575;BME280;4325;42.520;27.448;2023-04-06T02:20:28;100730.16;;;9.57;100.00
8575;BME280;4325;42.520;27.448;2023-04-06T02:22:56;100731.25;;;9.56;100.00
8575;BME280;4325;42.520;27.448;2023-04-06T02:25:23;100727.94;;;9.54;100.00
8575;BME280;4325;42.520;27.448;2023-04-06T02:27:50;100728.22;;;9.53;100.00
8575;BME280;4325;42.520;27.448;2023-04-06T02:30:17;100712.34;;;9.50;100.00
8575;BME280;4325;42.520;27.448;2023-04-06T02:32:45;100715.63;;;9.52;100.00
8575;BME280;4325;42.520;27.448;2023-04-06T02:35:12;100710.97;;;9.47;100.00
8575;BME280;4325;42.520;27.448;2023-04-06T02:37:40;100713.97;;;9.46;100.00
8575;BME280;4325;42.520;27.448;2023-04-06T02:40:08;100713.94;;;9.41;100.00
8575;BME280;4325;42.520;27.448;2023-04-06T02:42:35;100709.00;;;9.38;100.00
8575;BME280;4325;42.520;27.448;2023-04-06T02:45:02;100721.34;;;9.45;100.00
8575;BME280;4325;42.520;27.448;2023-04-06T02:47:29;100721.66;;;9.49;100.00
8575;BME280;4325;42.520;27.448;2023-04-06T02:49:57;100726.56;;;9.52;100.00
8575;BME280;4325;42.520;27.448;2023-04-06T02:52:24;100729.88;;;9.54;100.00
8575;BME280;4325;42.520;27.448;2023-04-06T02:54:51;100727.16;;;9.54;100.00
8575;BME280;4325;42.520;27.448;2023-04-06T02:57:18;100728.78;;;9.55;100.00
8575;BME280;4325;42.520;27.448;2023-04-06T02:59:45;100730.94;;;9.53;100.00
8575;BME280;4325;42.520;27.448;2023-04-06T03:02:12;100730.41;;;9.51;100.00
8575;BME280;4325;42.520;27.448;2023-04-06T03:04:39;100731.50;;;9.55;100.00
8575;BME280;4325;42.520;27.448;2023-04-06T03:07:07;100721.69;;;9.54;100.00
8575;BME280;4325;42.520;27.448;2023-04-06T03:09:36;100724.41;;;9.54;100.00
8575;BME280;4325;42.520;27.448;2023-04-06T03:12:03;100735.88;;;9.51;100.00
8575;BME280;4325;42.520;27.448;2023-04-06T03:14:30;100737.50;;;9.52;100.00
8575;BME280;4325;42.520;27.448;2023-04-06T03:16:57;100735.56;;;9.47;100.00
8575;BME280;4325;42.520;27.448;2023-04-06T03:19:24;100733.94;;;9.46;100.00
8575;BME280;4325;42.520;27.448;2023-04-06T03:21:51;100733.09;;;9.46;100.00
8575;BME280;4325;42.520;27.448;2023-04-06T03:24:19;100737.75;;;9.45;100.00
8575;BME280;4325;42.520;27.448;2023-04-06T03:26:46;100734.72;;;9.47;100.00
8575;BME280;4325;42.520;27.448;2023-04-06T03:29:13;100732.00;;;9.47;100.00
8575;BME280;4325;42.520;27.448;2023-04-06T03:31:40;100743.50;;;9.49;100.00
8575;BME280;4325;42.520;27.448;2023-04-06T03:34:07;100740.78;;;9.49;100.00
8575;BME280;4325;42.520;27.448;2023-04-06T03:36:34;100741.84;;;9.48;100.00
8575;BME280;4325;42.520;27.448;2023-04-06T03:39:01;100740.75;;;9.44;100.00
8575;BME280;4325;42.520;27.448;2023-04-06T03:41:29;100748.94;;;9.44;100.00
8575;BME280;4325;42.520;27.448;2023-04-06T03:43:56;100745.09;;;9.45;100.00
8575;BME280;4325;42.520;27.448;2023-04-06T03:46:23;100743.19;;;9.45;100.00
8575;BME280;4325;42.520;27.448;2023-04-06T03:48:50;100745.66;;;9.47;100.00
8575;BME280;4325;42.520;27.448;2023-04-06T03:51:17;100747.31;;;9.48;100.00
8575;BME280;4325;42.520;27.448;2023-04-06T03:53:44;100752.78;;;9.48;100.00
8575;BME280;4325;42.520;27.448;2023-04-06T03:56:11;100749.78;;;9.49;100.00
8575;BME280;4325;42.520;27.448;2023-04-06T03:58:39;100747.84;;;9.45;100.00
8575;BME280;4325;42.520;27.448;2023-04-06T04:01:06;100750.31;;;9.46;100.00
8575;BME280;4325;42.520;27.448;2023-04-06T04:03:33;100744.31;;;9.44;100.00
8575;BME280;4325;42.520;27.448;2023-04-06T04:05:59;100741.56;;;9.44;100.00
8575;BME280;4325;42.520;27.448;2023-04-06T04:08:26;100743.47;;;9.44;100.00
8575;BME280;4325;42.520;27.448;2023-04-06T04:10:53;100746.78;;;9.51;100.00
8575;BME280;4325;42.520;27.448;2023-04-06T04:13:20;100746.28;;;9.54;100.00
8575;BME280;4325;42.520;27.448;2023-04-06T04:15:49;100747.66;;;9.56;100.00
8575;BME280;4325;42.520;27.448;2023-04-06T04:18:16;100746.81;;;9.56;100.00
8575;BME280;4325;42.520;27.448;2023-04-06T04:20:43;100748.22;;;9.58;100.00
8575;BME280;4325;42.520;27.448;2023-04-06T04:23:09;100755.63;;;9.63;100.00
8575;BME280;4325;42.520;27.448;2023-04-06T04:25:36;100757.50;;;9.62;100.00
8575;BME280;4325;42.520;27.448;2023-04-06T04:28:04;100754.50;;;9.59;100.00
8575;BME280;4325;42.520;27.448;2023-04-06T04:30:30;100750.91;;;9.53;100.00
8575;BME280;4325;42.520;27.448;2023-04-06T04:32:59;100744.63;;;9.53;100.00
8575;BME280;4325;42.520;27.448;2023-04-06T04:35:26;100754.47;;;9.54;100.00
8575;BME280;4325;42.520;27.448;2023-04-06T04:37:53;100751.16;;;9.52;100.00
8575;BME280;4325;42.520;27.448;2023-04-06T04:40:20;100758.84;;;9.55;100.00
8575;BME280;4325;42.520;27.448;2023-04-06T04:42:47;100754.50;;;9.59;100.00
8575;BME280;4325;42.520;27.448;2023-04-06T04:45:14;100760.25;;;9.62;100.00
8575;BME280;4325;42.520;27.448;2023-04-06T04:47:41;100757.56;;;9.67;100.00
8575;BME280;4325;42.520;27.448;2023-04-06T04:50:10;100757.03;;;9.70;100.00
8575;BME280;4325;42.520;27.448;2023-04-06T04:52:37;100751.03;;;9.73;100.00
8575;BME280;4325;42.520;27.448;2023-04-06T04:55:04;100755.72;;;9.83;100.00
8575;BME280;4325;42.520;27.448;2023-04-06T04:57:31;100763.41;;;9.91;100.00
8575;BME280;4325;42.520;27.448;2023-04-06T04:59:58;100762.06;;;9.98;100.00
8575;BME280;4325;42.520;27.448;2023-04-06T05:02:25;100769.22;;;10.05;100.00
8575;BME280;4325;42.520;27.448;2023-04-06T05:04:52;100767.09;;;10.12;100.00
8575;BME280;4325;42.520;27.448;2023-04-06T05:07:20;100780.50;;;10.18;100.00
8575;BME280;4325;42.520;27.448;2023-04-06T05:09:48;100771.78;;;10.21;100.00
8575;BME280;4325;42.520;27.448;2023-04-06T05:12:15;100766.03;;;10.23;100.00
8575;BME280;4325;42.520;27.448;2023-04-06T05:14:42;100779.47;;;10.29;100.00
8575;BME280;4325;42.520;27.448;2023-04-06T05:17:09;100771.28;;;10.29;100.00
8575;BME280;4325;42.520;27.448;2023-04-06T05:19:36;100766.31;;;10.26;100.00
8575;BME280;4325;42.520;27.448;2023-04-06T05:22:03;100771.50;;;10.23;100.00
8575;BME280;4325;42.520;27.448;2023-04-06T05:24:31;100772.31;;;10.18;100.00
8575;BME280;4325;42.520;27.448;2023-04-06T05:26:58;100773.94;;;10.14;100.00
8575;BME280;4325;42.520;27.448;2023-04-06T05:29:26;100766.75;;;10.08;100.00
8575;BME280;4325;42.520;27.448;2023-04-06T05:31:53;100766.47;;;10.00;100.00
8575;BME280;4325;42.520;27.448;2023-04-06T05:34:20;100768.34;;;9.94;100.00
8575;BME280;4325;42.520;27.448;2023-04-06T05:36:47;100767.78;;;9.87;100.00
8575;BME280;4325;42.520;27.448;2023-04-06T05:39:13;100763.94;;;9.83;100.00
8575;BME280;4325;42.520;27.448;2023-04-06T05:41:42;100757.09;;;9.80;100.00
8575;BME280;4325;42.520;27.448;2023-04-06T05:44:09;100760.38;;;9.82;100.00
8575;BME280;4325;42.520;27.448;2023-04-06T05:46:36;100757.88;;;9.81;100.00
8575;BME280;4325;42.520;27.448;2023-04-06T05:49:02;100759.00;;;9.80;100.00
8575;BME280;4325;42.520;27.448;2023-04-06T05:51:29;100756.81;;;9.82;100.00
8575;BME280;4325;42.520;27.448;2023-04-06T05:53:56;100754.34;;;9.80;100.00
8575;BME280;4325;42.520;27.448;2023-04-06T05:56:24;100744.19;;;9.76;100.00
8575;BME280;4325;42.520;27.448;2023-04-06T05:58:52;100748.06;;;9.85;100.00
8575;BME280;4325;42.520;27.448;2023-04-06T06:01:19;100756.06;;;9.96;100.00
8575;BME280;4325;42.520;27.448;2023-04-06T06:03:46;100749.28;;;10.09;100.00
8575;BME280;4325;42.520;27.448;2023-04-06T06:06:12;100746.06;;;10.27;100.00
8575;BME280;4325;42.520;27.448;2023-04-06T06:08:39;100747.78;;;10.48;100.00
8575;BME280;4325;42.520;27.448;2023-04-06T06:11:06;100748.34;;;10.66;100.00
8575;BME280;4325;42.520;27.448;2023-04-06T06:13:33;100747.00;;;10.88;100.00
8575;BME280;4325;42.520;27.448;2023-04-06T06:16:02;100740.97;;;11.11;99.75
8575;BME280;4325;42.520;27.448;2023-04-06T06:18:30;100741.22;;;11.35;98.74
8575;BME280;4325;42.520;27.448;2023-04-06T06:20:57;100742.25;;;11.59;98.08
8575;BME280;4325;42.520;27.448;2023-04-06T06:23:24;100745.81;;;11.65;96.14
8575;BME280;4325;42.520;27.448;2023-04-06T06:25:52;100747.75;;;11.69;95.77
8575;BME280;4325;42.520;27.448;2023-04-06T06:28:19;100749.09;;;11.77;94.94
8575;BME280;4325;42.520;27.448;2023-04-06T06:30:46;100749.06;;;11.87;94.61
8575;BME280;4325;42.520;27.448;2023-04-06T06:33:14;100752.66;;;11.87;91.68
8575;BME280;4325;42.520;27.448;2023-04-06T06:35:41;100758.16;;;11.82;90.20
8575;BME280;4325;42.520;27.448;2023-04-06T06:38:08;100758.94;;;11.83;91.49
8575;BME280;4325;42.520;27.448;2023-04-06T06:40:35;100764.16;;;11.89;90.68
8575;BME280;4325;42.520;27.448;2023-04-06T06:43:02;100758.09;;;11.92;90.33
8575;BME280;4325;42.520;27.448;2023-04-06T06:45:29;100769.63;;;12.00;89.51
8575;BME280;4325;42.520;27.448;2023-04-06T06:47:56;100768.22;;;12.02;88.70
8575;BME280;4325;42.520;27.448;2023-04-06T06:50:24;100768.94;;;12.28;87.99
8575;BME280;4325;42.520;27.448;2023-04-06T06:52:51;100774.84;;;12.50;85.74
8575;BME280;4325;42.520;27.448;2023-04-06T06:55:18;100771.44;;;12.68;84.91
8575;BME280;4325;42.520;27.448;2023-04-06T06:57:45;100781.59;;;12.24;83.54
8575;BME280;4325;42.520;27.448;2023-04-06T07:00:13;100774.47;;;12.13;84.77
8575;BME280;4325;42.520;27.448;2023-04-06T07:02:40;100780.22;;;12.26;84.21
8575;BME280;4325;42.520;27.448;2023-04-06T07:05:08;100776.25;;;12.47;82.79
8575;BME280;4325;42.520;27.448;2023-04-06T07:07:36;100785.19;;;12.63;81.28
8575;BME280;4325;42.520;27.448;2023-04-06T07:10:03;100779.81;;;12.92;80.81
8575;BME280;4325;42.520;27.448;2023-04-06T07:12:30;100775.69;;;12.89;78.89
8575;BME280;4325;42.520;27.448;2023-04-06T07:14:57;100774.44;;;13.44;78.82
8575;BME280;4325;42.520;27.448;2023-04-06T07:17:24;100778.72;;;13.84;72.26
8575;BME280;4325;42.520;27.448;2023-04-06T07:19:51;100777.50;;;13.66;69.91
8575;BME280;4325;42.520;27.448;2023-04-06T07:22:18;100782.22;;;12.98;71.26
8575;BME280;4325;42.520;27.448;2023-04-06T07:24:46;100779.00;;;12.86;72.44
8575;BME280;4325;42.520;27.448;2023-04-06T07:27:13;100780.44;;;13.17;73.36
8575;BME280;4325;42.520;27.448;2023-04-06T07:29:41;100785.97;;;13.75;71.43
8575;BME280;4325;42.520;27.448;2023-04-06T07:32:08;100790.28;;;14.71;61.83
8575;BME280;4325;42.520;27.448;2023-04-06T07:34:35;100784.31;;;14.82;57.80
8575;BME280;4325;42.520;27.448;2023-04-06T07:37:02;100785.28;;;15.10;57.15
8575;BME280;4325;42.520;27.448;2023-04-06T07:39:29;100780.91;;;14.90;57.29
8575;BME280;4325;42.520;27.448;2023-04-06T07:41:57;100784.88;;;15.16;56.17
8575;BME280;4325;42.520;27.448;2023-04-06T07:44:24;100781.41;;;16.30;52.86
8575;BME280;4325;42.520;27.448;2023-04-06T07:46:51;100774.19;;;14.78;55.43
8575;BME280;4325;42.520;27.448;2023-04-06T07:49:18;100780.66;;;16.38;53.58
8575;BME280;4325;42.520;27.448;2023-04-06T07:51:46;100774.72;;;17.38;49.15
8575;BME280;4325;42.520;27.448;2023-04-06T07:54:13;100770.78;;;17.84;47.04
8575;BME280;4325;42.520;27.448;2023-04-06T07:56:40;100767.00;;;17.27;49.46
8575;BME280;4325;42.520;27.448;2023-04-06T07:59:08;100763.88;;;18.94;43.77
8575;BME280;4325;42.520;27.448;2023-04-06T08:01:36;100766.66;;;18.94;42.68
8575;BME280;4325;42.520;27.448;2023-04-06T08:04:03;100761.09;;;17.20;45.70
8575;BME280;4325;42.520;27.448;2023-04-06T08:06:31;100764.47;;;17.39;45.66
8575;BME280;4325;42.520;27.448;2023-04-06T08:08:57;100770.88;;;17.70;44.03
8575;BME280;4325;42.520;27.448;2023-04-06T08:11:24;100774.91;;;19.71;41.08
8575;BME280;4325;42.520;27.448;2023-04-06T08:13:52;100762.22;;;22.46;36.32
8575;BME280;4325;42.520;27.448;2023-04-06T08:16:20;100765.94;;;21.89;34.97
8575;BME280;4325;42.520;27.448;2023-04-06T08:18:47;100767.91;;;22.37;34.59
8575;BME280;4325;42.520;27.448;2023-04-06T08:21:14;100760.97;;;22.19;34.54
8575;BME280;4325;42.520;27.448;2023-04-06T08:23:41;100765.28;;;25.08;31.43
8575;BME280;4325;42.520;27.448;2023-04-06T08:26:08;100757.56;;;27.82;28.07
8575;BME280;4325;42.520;27.448;2023-04-06T08:28:35;100749.91;;;30.24;25.07
8575;BME280;4325;42.520;27.448;2023-04-06T08:31:04;100758.53;;;29.13;24.24
8575;BME280;4325;42.520;27.448;2023-04-06T08:33:33;100755.50;;;27.09;26.49
8575;BME280;4325;42.520;27.448;2023-04-06T08:36:07;100761.00;;;25.97;26.73
8575;BME280;4325;42.520;27.448;2023-04-06T08:38:35;100756.19;;;25.14;28.73
8575;BME280;4325;42.520;27.448;2023-04-06T08:41:07;100758.31;;;25.59;27.95
8575;BME280;4325;42.520;27.448;2023-04-06T08:43:39;100751.97;;;24.85;27.56
8575;BME280;4325;42.520;27.448;2023-04-06T08:46:08;100751.25;;;25.27;27.31
8575;BME280;4325;42.520;27.448;2023-04-06T08:48:38;100750.38;;;24.03;29.73
8575;BME280;4325;42.520;27.448;2023-04-06T08:51:05;100745.03;;;22.31;31.91
8575;BME280;4325;42.520;27.448;2023-04-06T08:53:32;100741.09;;;21.96;32.47
8575;BME280;4325;42.520;27.448;2023-04-06T08:55:59;100748.56;;;21.71;32.24
8575;BME280;4325;42.520;27.448;2023-04-06T08:58:33;100747.13;;;22.22;31.27
8575;BME280;4325;42.520;27.448;2023-04-06T09:01:00;100731.34;;;22.14;32.54
8575;BME280;4325;42.520;27.448;2023-04-06T09:03:29;100744.25;;;20.26;34.21
8575;BME280;4325;42.520;27.448;2023-04-06T09:05:58;100745.31;;;21.69;31.87
8575;BME280;4325;42.520;27.448;2023-04-06T09:08:25;100747.53;;;22.85;30.40
8575;BME280;4325;42.520;27.448;2023-04-06T09:10:52;100739.28;;;24.22;28.30
8575;BME280;4325;42.520;27.448;2023-04-06T09:13:19;100731.31;;;25.51;26.91
8575;BME280;4325;42.520;27.448;2023-04-06T09:15:46;100734.06;;;26.94;25.00
8575;BME280;4325;42.520;27.448;2023-04-06T09:18:14;100735.50;;;27.88;24.22
8575;BME280;4325;42.520;27.448;2023-04-06T09:20:59;100718.78;;;26.36;25.09
8575;BME280;4325;42.520;27.448;2023-04-06T09:23:26;100725.28;;;25.49;26.47
8575;BME280;4325;42.520;27.448;2023-04-06T09:26:07;100721.59;;;23.71;29.80
8575;BME280;4325;42.520;27.448;2023-04-06T09:28:42;100706.81;;;24.52;27.24
8575;BME280;4325;42.520;27.448;2023-04-06T09:31:10;100710.31;;;25.22;26.95
8575;BME280;4325;42.520;27.448;2023-04-06T09:33:38;100712.06;;;24.19;27.80
8575;BME280;4325;42.520;27.448;2023-04-06T09:36:07;100718.91;;;23.43;28.75
8575;BME280;4325;42.520;27.448;2023-04-06T09:38:37;100717.34;;;26.49;26.21
8575;BME280;4325;42.520;27.448;2023-04-06T09:41:04;100703.38;;;26.82;25.64
8575;BME280;4325;42.520;27.448;2023-04-06T09:43:31;100709.91;;;26.34;25.57
8575;BME280;4325;42.520;27.448;2023-04-06T09:46:00;100703.59;;;25.46;26.10
8575;BME280;4325;42.520;27.448;2023-04-06T09:48:31;100708.59;;;25.56;26.45
8575;BME280;4325;42.520;27.448;2023-04-06T09:51:03;100708.41;;;25.68;26.22
8575;BME280;4325;42.520;27.448;2023-04-06T09:53:35;100700.84;;;24.54;27.45
8575;BME280;4325;42.520;27.448;2023-04-06T09:56:08;100702.69;;;23.64;29.16
8575;BME280;4325;42.520;27.448;2023-04-06T09:58:40;100703.78;;;27.91;26.62
8575;BME280;4325;42.520;27.448;2023-04-06T10:01:12;100706.09;;;27.82;24.24
8575;BME280;4325;42.520;27.448;2023-04-06T10:03:45;100702.34;;;26.11;26.70
8575;BME280;4325;42.520;27.448;2023-04-06T10:06:14;100706.25;;;24.62;27.11
8575;BME280;4325;42.520;27.448;2023-04-06T10:08:46;100703.09;;;26.08;25.81
8575;BME280;4325;42.520;27.448;2023-04-06T10:11:15;100695.75;;;27.93;24.80
8575;BME280;4325;42.520;27.448;2023-04-06T10:13:42;100699.06;;;31.97;22.96
8575;BME280;4325;42.520;27.448;2023-04-06T10:16:09;100694.88;;;34.47;19.25
8575;BME280;4325;42.520;27.448;2023-04-06T10:18:38;100687.63;;;34.46;18.86
8575;BME280;4325;42.520;27.448;2023-04-06T10:21:09;100687.59;;;32.89;19.20
8575;BME280;4325;42.520;27.448;2023-04-06T10:23:43;100668.53;;;34.23;19.74
8575;BME280;4325;42.520;27.448;2023-04-06T10:26:14;100670.91;;;37.38;17.93
8575;BME280;4325;42.520;27.448;2023-04-06T10:28:42;100672.38;;;40.88;15.94
8575;BME280;4325;42.520;27.448;2023-04-06T10:31:10;100668.41;;;41.27;15.20
8575;BME280;4325;42.520;27.448;2023-04-06T10:33:37;100659.66;;;38.84;16.48
8575;BME280;4325;42.520;27.448;2023-04-06T10:36:10;100664.53;;;36.19;17.56
8575;BME280;4325;42.520;27.448;2023-04-06T10:38:38;100672.53;;;33.26;19.50
8575;BME280;4325;42.520;27.448;2023-04-06T10:41:06;100663.69;;;32.56;19.91
8575;BME280;4325;42.520;27.448;2023-04-06T10:43:36;100653.75;;;34.51;18.52
8575;BME280;4325;42.520;27.448;2023-04-06T10:46:05;100653.31;;;33.37;19.10
8575;BME280;4325;42.520;27.448;2023-04-06T10:48:39;100649.31;;;31.96;21.00
8575;BME280;4325;42.520;27.448;2023-04-06T10:51:10;100632.47;;;35.19;19.20
8575;BME280;4325;42.520;27.448;2023-04-06T10:53:38;100638.81;;;38.62;17.00
8575;BME280;4325;42.520;27.448;2023-04-06T10:56:09;100651.44;;;40.33;13.58
8575;BME280;4325;42.520;27.448;2023-04-06T10:58:44;100641.16;;;37.23;15.02
8575;BME280;4325;42.520;27.448;2023-04-06T11:01:11;100643.63;;;35.94;15.92
8575;BME280;4325;42.520;27.448;2023-04-06T11:03:44;100636.72;;;38.07;14.34
8575;BME280;4325;42.520;27.448;2023-04-06T11:06:18;100634.63;;;37.86;14.65
8575;BME280;4325;42.520;27.448;2023-04-06T11:08:45;100636.59;;;34.16;16.75
8575;BME280;4325;42.520;27.448;2023-04-06T11:11:13;100629.13;;;31.46;18.70
8575;BME280;4325;42.520;27.448;2023-04-06T11:13:43;100636.06;;;27.70;22.90
8575;BME280;4325;42.520;27.448;2023-04-06T11:16:14;100618.81;;;26.61;23.63
8575;BME280;4325;42.520;27.448;2023-04-06T11:18:53;100613.59;;;29.56;21.39
8575;BME280;4325;42.520;27.448;2023-04-06T11:21:31;100613.91;;;30.29;20.22
8575;BME280;4325;42.520;27.448;2023-04-06T11:24:06;100611.78;;;28.70;21.49
8575;BME280;4325;42.520;27.448;2023-04-06T11:26:37;100615.16;;;29.22;20.83
8575;BME280;4325;42.520;27.448;2023-04-06T11:29:06;100599.34;;;31.24;19.98
8575;BME280;4325;42.520;27.448;2023-04-06T11:31:38;100606.13;;;31.85;18.87
8575;BME280;4325;42.520;27.448;2023-04-06T11:34:09;100596.22;;;33.58;17.50
8575;BME280;4325;42.520;27.448;2023-04-06T11:36:40;100607.88;;;32.50;17.56
8575;BME280;4325;42.520;27.448;2023-04-06T11:39:07;100596.47;;;31.27;18.44
8575;BME280;4325;42.520;27.448;2023-04-06T11:41:34;100594.66;;;32.03;18.60
8575;BME280;4325;42.520;27.448;2023-04-06T11:44:01;100593.97;;;34.94;16.99
8575;BME280;4325;42.520;27.448;2023-04-06T11:46:30;100601.72;;;32.21;17.26
8575;BME280;4325;42.520;27.448;2023-04-06T11:49:00;100592.94;;;31.16;18.97
8575;BME280;4325;42.520;27.448;2023-04-06T11:51:28;100588.56;;;32.38;17.82
8575;BME280;4325;42.520;27.448;2023-04-06T11:53:55;100583.19;;;30.48;18.63
8575;BME280;4325;42.520;27.448;2023-04-06T11:56:23;100580.06;;;32.04;18.07
8575;BME280;4325;42.520;27.448;2023-04-06T11:58:51;100585.34;;;32.73;17.15
8575;BME280;4325;42.520;27.448;2023-04-06T12:01:18;100587.44;;;34.19;16.25
8575;BME280;4325;42.520;27.448;2023-04-06T12:03:46;100584.91;;;35.67;14.78
8575;BME280;4325;42.520;27.448;2023-04-06T12:06:13;100587.63;;;35.23;14.61
8575;BME280;4325;42.520;27.448;2023-04-06T12:08:44;100590.00;;;30.61;18.01
8575;BME280;4325;42.520;27.448;2023-04-06T12:11:12;100589.13;;;28.53;19.58
8575;BME280;4325;42.520;27.448;2023-04-06T12:13:38;100588.03;;;28.71;19.21
8575;BME280;4325;42.520;27.448;2023-04-06T12:16:06;100592.06;;;31.26;17.83
8575;BME280;4325;42.520;27.448;2023-04-06T12:18:33;100579.59;;;34.82;16.04
8575;BME280;4325;42.520;27.448;2023-04-06T12:21:04;100573.91;;;35.17;15.23
8575;BME280;4325;42.520;27.448;2023-04-06T12:23:31;100579.19;;;34.44;15.88
8575;BME280;4325;42.520;27.448;2023-04-06T12:25:58;100573.81;;;38.07;14.90
8575;BME280;4325;42.520;27.448;2023-04-06T12:28:26;100567.66;;;39.35;14.69
8575;BME280;4325;42.520;27.448;2023-04-06T12:30:53;100566.53;;;41.37;13.35
8575;BME280;4325;42.520;27.448;2023-04-06T12:33:21;100567.66;;;43.13;12.24
8575;BME280;4325;42.520;27.448;2023-04-06T12:35:47;100564.38;;;44.36;12.27
8575;BME280;4325;42.520;27.448;2023-04-06T12:38:16;100568.22;;;45.41;11.64
8575;BME280;4325;42.520;27.448;2023-04-06T12:40:43;100562.53;;;46.22;10.72
8575;BME280;4325;42.520;27.448;2023-04-06T12:43:10;100563.97;;;46.77;10.04
8575;BME280;4325;42.520;27.448;2023-04-06T12:45:38;100563.16;;;47.15;10.32
8575;BME280;4325;42.520;27.448;2023-04-06T12:48:06;100560.78;;;46.41;10.01
8575;BME280;4325;42.520;27.448;2023-04-06T12:50:32;100555.97;;;46.33;10.70
8575;BME280;4325;42.520;27.448;2023-04-06T12:53:00;100563.38;;;46.34;10.34
8575;BME280;4325;42.520;27.448;2023-04-06T12:55:30;100555.38;;;46.01;10.37
8575;BME280;4325;42.520;27.448;2023-04-06T12:57:59;100554.81;;;44.50;10.55
8575;BME280;4325;42.520;27.448;2023-04-06T13:00:27;100543.59;;;43.31;11.97
8575;BME280;4325;42.520;27.448;2023-04-06T13:02:54;100545.63;;;39.90;13.70